createdAt,value
2018-07-08T00:00:03.476Z,0.00
2018-07-08T00:01:03.443Z,0.00
2018-07-08T00:02:03.415Z,0.00
2018-07-08T00:03:03.379Z,0.00
2018-07-08T00:04:03.343Z,0.00
2018-07-08T00:05:03.308Z,0.00
2018-07-08T00:06:03.280Z,0.00
2018-07-08T00:07:03.245Z,0.00
2018-07-08T00:08:03.211Z,0.00
2018-07-08T00:09:03.172Z,0.00
2018-07-08T00:10:03.143Z,0.00
2018-07-08T00:11:03.109Z,0.00
2018-07-08T00:12:03.083Z,0.00
2018-07-08T00:13:03.050Z,0.00
2018-07-08T00:14:03.015Z,0.00
2018-07-08T00:15:02.978Z,0.00
2018-07-08T00:16:02.944Z,0.00
2018-07-08T00:17:02.905Z,0.00
2018-07-08T00:18:02.877Z,0.00
2018-07-08T00:19:02.846Z,0.00
2018-07-08T00:20:02.814Z,0.00
2018-07-08T00:21:02.781Z,0.00
2018-07-08T00:22:02.742Z,0.00
2018-07-08T00:23:02.712Z,0.00
2018-07-08T00:24:02.680Z,0.00
2018-07-08T00:25:02.652Z,0.00
2018-07-08T00:26:02.616Z,0.00
2018-07-08T00:27:02.579Z,0.00
2018-07-08T00:28:02.543Z,0.00
2018-07-08T00:29:02.507Z,0.00
2018-07-08T00:30:02.481Z,0.00
2018-07-08T00:31:02.439Z,0.00
2018-07-08T00:32:02.419Z,0.00
2018-07-08T00:33:02.380Z,0.00
2018-07-08T00:34:02.353Z,0.00
2018-07-08T00:35:02.314Z,0.00
2018-07-08T00:36:02.276Z,0.00
2018-07-08T00:37:02.247Z,0.00
2018-07-08T00:38:02.213Z,0.00
2018-07-08T00:39:02.180Z,0.00
2018-07-08T00:40:02.146Z,0.00
2018-07-08T00:41:02.114Z,0.00
2018-07-08T00:42:02.082Z,0.00
2018-07-08T00:43:02.044Z,0.00
2018-07-08T00:44:02.017Z,0.00
2018-07-08T00:45:01.979Z,0.00
2018-07-08T00:46:01.947Z,0.00
2018-07-08T00:47:01.917Z,0.00
2018-07-08T00:48:01.872Z,0.00
2018-07-08T00:49:01.846Z,0.00
2018-07-08T00:50:01.813Z,0.00
2018-07-08T00:51:01.776Z,0.00
2018-07-08T00:52:01.753Z,0.00
2018-07-08T00:53:01.712Z,0.00
2018-07-08T00:54:01.678Z,0.00
2018-07-08T00:55:01.642Z,0.00
2018-07-08T00:56:01.622Z,0.00
2018-07-08T00:57:01.577Z,0.00
2018-07-08T00:58:01.546Z,0.00
2018-07-08T00:59:01.533Z,0.00
2018-07-08T01:00:01.472Z,0.00
2018-07-08T01:01:01.445Z,0.00
2018-07-08T01:02:01.408Z,0.00
2018-07-08T01:03:01.374Z,0.00
2018-07-08T01:04:01.355Z,0.00
2018-07-08T01:05:01.308Z,0.00
2018-07-08T01:06:01.288Z,0.00
2018-07-08T01:07:01.242Z,0.00
2018-07-08T01:08:01.206Z,0.00
2018-07-08T01:09:01.173Z,0.00
2018-07-08T01:10:01.156Z,0.00
2018-07-08T01:11:01.110Z,0.00
2018-07-08T01:12:01.075Z,0.00
2018-07-08T01:13:01.039Z,0.00
2018-07-08T01:14:01.008Z,0.00
2018-07-08T01:15:00.976Z,0.00
2018-07-08T01:16:00.943Z,0.00
2018-07-08T01:17:00.907Z,0.00
2018-07-08T01:18:00.875Z,0.00
2018-07-08T01:19:00.844Z,0.00
2018-07-08T01:20:00.802Z,0.00
2018-07-08T01:21:00.773Z,0.00
2018-07-08T01:22:00.736Z,0.00
2018-07-08T01:23:00.700Z,0.00
2018-07-08T01:24:00.689Z,0.00
2018-07-08T01:25:00.642Z,0.00
2018-07-08T01:26:00.604Z,0.00
2018-07-08T01:27:00.567Z,0.00
2018-07-08T01:28:00.539Z,0.00
2018-07-08T01:29:00.503Z,0.00
2018-07-08T01:30:00.480Z,0.00
2018-07-08T01:31:00.437Z,0.00
2018-07-08T01:32:00.402Z,0.00
2018-07-08T01:33:00.369Z,0.00
2018-07-08T01:34:00.333Z,0.00
2018-07-08T01:35:00.296Z,0.00
2018-07-08T01:36:00.268Z,0.00
2018-07-08T01:37:00.235Z,0.00
2018-07-08T01:38:00.208Z,0.00
2018-07-08T01:39:00.167Z,0.00
2018-07-08T01:40:00.129Z,0.00
2018-07-08T01:41:00.098Z,0.00
2018-07-08T01:42:00.068Z,0.00
2018-07-08T01:43:00.040Z,0.00
2018-07-08T01:44:00.006Z,0.00
2018-07-08T01:44:59.966Z,0.00
2018-07-08T01:45:59.933Z,0.00
2018-07-08T01:46:59.913Z,0.00
2018-07-08T01:47:59.873Z,0.00
2018-07-08T01:48:59.830Z,0.00
2018-07-08T01:49:59.799Z,0.00
2018-07-08T01:50:59.766Z,0.00
2018-07-08T01:51:59.731Z,0.00
2018-07-08T01:52:59.695Z,0.00
2018-07-08T01:53:59.662Z,0.00
2018-07-08T01:54:59.624Z,0.00
2018-07-08T01:55:59.596Z,0.00
2018-07-08T01:56:59.563Z,0.00
2018-07-08T01:57:59.526Z,0.00
2018-07-08T01:58:59.495Z,0.00
2018-07-08T01:59:59.464Z,0.00
2018-07-08T02:00:59.428Z,0.00
2018-07-08T02:01:59.396Z,0.00
2018-07-08T02:02:59.361Z,0.00
2018-07-08T02:03:59.324Z,0.00
2018-07-08T02:04:59.291Z,0.00
2018-07-08T02:05:59.257Z,0.00
2018-07-08T02:06:59.236Z,0.00
2018-07-08T02:07:59.194Z,0.00
2018-07-08T02:08:59.158Z,0.00
2018-07-08T02:09:59.124Z,0.00
2018-07-08T02:10:59.092Z,0.00
2018-07-08T02:11:59.061Z,0.00
2018-07-08T02:12:59.028Z,0.00
2018-07-08T02:13:58.997Z,0.00
2018-07-08T02:14:58.959Z,0.00
2018-07-08T02:15:58.921Z,0.00
2018-07-08T02:16:58.898Z,0.00
2018-07-08T02:17:58.855Z,0.00
2018-07-08T02:18:58.822Z,0.00
2018-07-08T02:19:58.790Z,0.00
2018-07-08T02:20:58.756Z,0.00
2018-07-08T02:21:58.722Z,0.00
2018-07-08T02:22:58.696Z,0.00
2018-07-08T02:23:58.653Z,0.00
2018-07-08T02:24:58.623Z,0.00
2018-07-08T02:25:58.599Z,0.00
2018-07-08T02:26:58.551Z,0.00
2018-07-08T02:27:58.521Z,0.00
2018-07-08T02:28:58.488Z,0.00
2018-07-08T02:29:58.452Z,0.00
2018-07-08T02:30:58.423Z,0.00
2018-07-08T02:31:58.385Z,0.00
2018-07-08T02:32:58.350Z,0.00
2018-07-08T02:33:58.316Z,0.00
2018-07-08T02:34:58.288Z,0.00
2018-07-08T02:35:58.245Z,0.00
2018-07-08T02:36:58.213Z,0.00
2018-07-08T02:37:58.187Z,0.00
2018-07-08T02:38:58.144Z,0.00
2018-07-08T02:39:58.115Z,0.00
2018-07-08T02:40:58.080Z,0.00
2018-07-08T02:41:58.047Z,0.00
2018-07-08T02:42:58.010Z,0.00
2018-07-08T02:43:57.973Z,0.00
2018-07-08T02:44:57.942Z,0.00
2018-07-08T02:45:57.911Z,0.00
2018-07-08T02:46:57.884Z,0.00
2018-07-08T02:47:57.839Z,0.00
2018-07-08T02:48:57.807Z,0.00
2018-07-08T02:49:57.772Z,0.00
2018-07-08T02:50:57.743Z,0.00
2018-07-08T02:51:57.708Z,0.00
2018-07-08T02:52:57.676Z,0.00
2018-07-08T02:53:57.643Z,0.00
2018-07-08T02:54:57.606Z,0.00
2018-07-08T02:55:57.581Z,0.00
2018-07-08T02:56:57.537Z,0.00
2018-07-08T02:57:57.509Z,0.00
2018-07-08T02:58:57.464Z,0.00
2018-07-08T02:59:57.437Z,0.00
2018-07-08T03:00:57.401Z,0.00
2018-07-08T03:01:57.365Z,0.00
2018-07-08T03:02:57.335Z,0.00
2018-07-08T03:03:57.304Z,0.00
2018-07-08T03:04:57.277Z,0.00
2018-07-08T03:05:57.236Z,0.00
2018-07-08T03:06:57.202Z,0.00
2018-07-08T03:07:57.174Z,0.00
2018-07-08T03:08:57.134Z,0.00
2018-07-08T03:09:57.100Z,0.00
2018-07-08T03:10:57.057Z,0.00
2018-07-08T03:11:57.038Z,0.00
2018-07-08T03:12:56.998Z,0.00
2018-07-08T03:13:56.959Z,0.00
2018-07-08T03:14:56.929Z,0.00
2018-07-08T03:15:56.885Z,0.00
2018-07-08T03:16:56.857Z,0.00
2018-07-08T03:17:56.824Z,0.00
2018-07-08T03:18:56.831Z,0.00
2018-07-08T03:19:56.757Z,0.00
2018-07-08T03:20:56.720Z,0.00
2018-07-08T03:21:56.691Z,0.00
2018-07-08T03:22:56.652Z,0.00
2018-07-08T03:23:56.625Z,0.00
2018-07-08T03:24:56.586Z,0.00
2018-07-08T03:25:56.557Z,0.00
2018-07-08T03:26:56.524Z,0.00
2018-07-08T03:27:56.484Z,5.63
2018-07-08T03:28:56.449Z,5.63
2018-07-08T03:29:56.416Z,5.63
2018-07-08T03:30:56.386Z,5.63
2018-07-08T03:31:56.355Z,5.63
2018-07-08T03:32:56.318Z,5.63
2018-07-08T03:33:56.275Z,5.63
2018-07-08T03:34:56.239Z,5.63
2018-07-08T03:35:56.218Z,11.25
2018-07-08T03:36:56.190Z,11.25
2018-07-08T03:37:56.151Z,11.25
2018-07-08T03:38:56.115Z,11.25
2018-07-08T03:39:56.073Z,11.25
2018-07-08T03:40:56.038Z,11.25
2018-07-08T03:41:56.003Z,11.25
2018-07-08T03:42:55.966Z,16.88
2018-07-08T03:43:55.938Z,16.88
2018-07-08T03:44:55.906Z,16.88
2018-07-08T03:45:55.874Z,16.88
2018-07-08T03:46:55.838Z,16.88
2018-07-08T03:47:55.795Z,22.50
2018-07-08T03:48:55.761Z,22.50
2018-07-08T03:49:55.731Z,22.50
2018-07-08T03:50:55.696Z,22.50
2018-07-08T03:51:55.663Z,22.50
2018-07-08T04:09:13.487Z,45.00
2018-07-08T04:10:13.406Z,45.00
2018-07-08T04:11:13.368Z,50.63
2018-07-08T04:12:13.330Z,50.63
2018-07-08T04:13:13.293Z,50.63
2018-07-08T04:14:13.253Z,50.63
2018-07-08T04:15:13.276Z,56.25
2018-07-08T04:16:13.176Z,56.25
2018-07-08T04:17:13.138Z,56.25
2018-07-08T04:18:13.098Z,56.25
2018-07-08T04:19:13.066Z,56.25
2018-07-08T04:20:13.032Z,61.88
2018-07-08T04:21:12.997Z,61.88
2018-07-08T04:22:12.961Z,61.88
2018-07-08T04:23:12.927Z,61.88
2018-07-08T04:24:12.886Z,67.50
2018-07-08T04:25:12.852Z,67.50
2018-07-08T04:26:12.814Z,67.50
2018-07-08T04:27:12.783Z,67.50
2018-07-08T04:28:12.750Z,67.50
2018-07-08T04:29:12.717Z,67.50
2018-07-08T04:30:12.675Z,67.50
2018-07-08T04:31:12.647Z,67.50
2018-07-08T04:32:12.610Z,67.50
2018-07-08T04:33:12.577Z,67.50
2018-07-08T04:34:12.542Z,73.13
2018-07-08T04:35:12.505Z,73.13
2018-07-08T04:36:12.471Z,73.13
2018-07-08T04:37:12.432Z,73.13
2018-07-08T04:38:12.401Z,73.13
2018-07-08T04:39:12.366Z,78.75
2018-07-08T04:40:12.340Z,78.75
2018-07-08T04:41:12.300Z,78.75
2018-07-08T04:42:12.263Z,78.75
2018-07-08T04:43:12.232Z,84.38
2018-07-08T04:44:12.191Z,84.38
2018-07-08T04:45:12.161Z,84.38
2018-07-08T04:46:12.129Z,84.38
2018-07-08T04:47:12.096Z,84.38
2018-07-08T04:48:12.053Z,90.00
2018-07-08T04:49:12.057Z,90.00
2018-07-08T04:50:11.988Z,90.00
2018-07-08T04:51:11.946Z,90.00
2018-07-08T04:52:11.927Z,95.63
2018-07-08T04:53:11.885Z,95.63
2018-07-08T04:54:11.852Z,95.63
2018-07-08T04:55:11.822Z,95.63
2018-07-08T04:56:11.780Z,95.63
2018-07-08T04:57:11.748Z,101.25
2018-07-08T04:58:11.715Z,101.25
2018-07-08T04:59:11.677Z,101.25
2018-07-08T05:00:11.651Z,101.25
2018-07-08T05:01:11.614Z,101.25
2018-07-08T05:02:11.576Z,106.88
2018-07-08T05:03:11.543Z,106.88
2018-07-08T05:04:11.513Z,112.50
2018-07-08T05:05:11.475Z,106.88
2018-07-08T05:06:11.449Z,106.88
2018-07-08T05:07:11.410Z,112.50
2018-07-08T05:08:11.372Z,112.50
2018-07-08T05:09:11.339Z,112.50
2018-07-08T05:10:11.305Z,112.50
2018-07-08T05:11:11.270Z,112.50
2018-07-08T05:12:11.239Z,112.50
2018-07-08T05:13:11.209Z,118.13
2018-07-08T05:14:11.170Z,118.13
2018-07-08T05:15:11.137Z,118.13
2018-07-08T05:16:11.099Z,118.13
2018-07-08T05:17:11.068Z,123.75
2018-07-08T05:18:11.033Z,123.75
2018-07-08T05:19:11.001Z,123.75
2018-07-08T05:20:10.965Z,118.13
2018-07-08T05:21:10.933Z,118.13
2018-07-08T05:22:10.895Z,123.75
2018-07-08T05:23:10.865Z,123.75
2018-07-08T05:24:10.832Z,123.75
2018-07-08T05:25:10.802Z,123.75
2018-07-08T05:26:10.765Z,123.75
2018-07-08T05:27:10.732Z,123.75
2018-07-08T05:28:10.692Z,129.38
2018-07-08T05:29:10.660Z,129.38
2018-07-08T05:30:10.625Z,129.38
2018-07-08T05:31:10.589Z,129.38
2018-07-08T05:32:10.561Z,135.00
2018-07-08T05:33:10.526Z,135.00
2018-07-08T05:34:10.488Z,135.00
2018-07-08T05:35:10.455Z,135.00
2018-07-08T05:36:10.428Z,140.63
2018-07-08T05:37:10.391Z,140.63
2018-07-08T05:38:10.357Z,140.63
2018-07-08T05:39:10.324Z,140.63
2018-07-08T05:40:10.285Z,140.63
2018-07-08T05:41:10.255Z,146.25
2018-07-08T05:42:10.218Z,146.25
2018-07-08T05:43:10.184Z,146.25
2018-07-08T05:44:10.165Z,146.25
2018-07-08T05:45:10.123Z,146.25
2018-07-08T05:46:10.087Z,151.88
2018-07-08T05:47:10.055Z,151.88
2018-07-08T05:48:10.015Z,151.88
2018-07-08T05:49:09.984Z,157.50
2018-07-08T05:50:10.005Z,157.50
2018-07-08T05:51:09.922Z,151.88
2018-07-08T05:52:09.884Z,157.50
2018-07-08T05:53:09.854Z,157.50
2018-07-08T05:54:09.813Z,157.50
2018-07-08T05:55:09.780Z,157.50
2018-07-08T05:56:09.750Z,157.50
2018-07-08T05:57:09.719Z,157.50
2018-07-08T05:58:09.685Z,157.50
2018-07-08T05:59:09.651Z,163.13
2018-07-08T06:00:09.609Z,163.13
2018-07-08T06:01:09.579Z,163.13
2018-07-08T06:02:09.545Z,163.13
2018-07-08T06:03:09.509Z,163.13
2018-07-08T06:04:09.484Z,163.13
2018-07-08T06:05:09.447Z,163.13
2018-07-08T06:06:09.412Z,168.75
2018-07-08T06:07:09.375Z,168.75
2018-07-08T06:08:09.350Z,168.75
2018-07-08T06:09:09.316Z,168.75
2018-07-08T06:10:09.284Z,168.75
2018-07-08T06:11:09.251Z,168.75
2018-07-08T06:12:09.208Z,168.75
2018-07-08T06:13:09.177Z,168.75
2018-07-08T06:14:09.148Z,168.75
2018-07-08T06:15:09.109Z,168.75
2018-07-08T06:16:09.083Z,174.38
2018-07-08T06:17:09.066Z,174.38
2018-07-08T06:18:09.021Z,174.38
2018-07-08T06:19:08.979Z,174.38
2018-07-08T06:20:08.943Z,174.38
2018-07-08T06:21:08.928Z,174.38
2018-07-08T06:22:08.879Z,180.00
2018-07-08T06:23:08.846Z,174.38
2018-07-08T06:24:08.809Z,180.00
2018-07-08T06:25:08.777Z,180.00
2018-07-08T06:26:08.747Z,180.00
2018-07-08T06:27:08.706Z,180.00
2018-07-08T06:28:08.686Z,180.00
2018-07-08T06:29:08.647Z,185.63
2018-07-08T06:30:08.612Z,185.63
2018-07-08T06:31:08.587Z,185.63
2018-07-08T06:32:08.543Z,185.63
2018-07-08T06:33:08.513Z,185.63
2018-07-08T06:34:08.480Z,185.63
2018-07-08T06:35:08.445Z,191.25
2018-07-08T06:36:08.415Z,191.25
2018-07-08T06:37:08.382Z,191.25
2018-07-08T06:38:08.345Z,191.25
2018-07-08T06:39:08.322Z,191.25
2018-07-08T06:40:08.284Z,191.25
2018-07-08T06:41:08.256Z,196.88
2018-07-08T06:42:08.219Z,196.88
2018-07-08T06:43:08.185Z,196.88
2018-07-08T06:44:08.146Z,196.88
2018-07-08T06:45:08.119Z,196.88
2018-07-08T06:46:08.084Z,196.88
2018-07-08T06:47:08.048Z,196.88
2018-07-08T06:48:08.022Z,202.50
2018-07-08T06:49:07.987Z,202.50
2018-07-08T06:50:07.953Z,202.50
2018-07-08T06:51:07.925Z,202.50
2018-07-08T06:52:07.928Z,202.50
2018-07-08T06:53:07.855Z,202.50
2018-07-08T06:54:07.832Z,202.50
2018-07-08T06:55:07.793Z,202.50
2018-07-08T06:56:07.763Z,202.50
2018-07-08T06:57:07.722Z,202.50
2018-07-08T06:58:07.694Z,208.13
2018-07-08T06:59:07.654Z,208.13
2018-07-08T07:00:07.636Z,208.13
2018-07-08T07:01:07.594Z,208.13
2018-07-08T07:02:07.564Z,208.13
2018-07-08T07:03:07.530Z,208.13
2018-07-08T07:04:07.492Z,208.13
2018-07-08T07:05:07.463Z,208.13
2018-07-08T07:06:07.434Z,208.13
2018-07-08T07:07:07.399Z,208.13
2018-07-08T07:08:07.370Z,208.13
2018-07-08T07:09:07.348Z,208.13
2018-07-08T07:10:07.302Z,208.13
2018-07-08T07:11:07.268Z,208.13
2018-07-08T07:12:07.240Z,208.13
2018-07-08T07:13:07.204Z,213.75
2018-07-08T07:14:07.173Z,213.75
2018-07-08T07:15:07.145Z,213.75
2018-07-08T07:16:07.103Z,213.75
2018-07-08T07:17:07.080Z,213.75
2018-07-08T07:18:07.042Z,213.75
2018-07-08T07:19:07.005Z,213.75
2018-07-08T07:20:06.986Z,219.38
2018-07-08T07:21:07.015Z,219.38
2018-07-08T07:22:06.912Z,219.38
2018-07-08T07:23:06.896Z,219.38
2018-07-08T07:24:06.845Z,219.38
2018-07-08T07:25:06.817Z,219.38
2018-07-08T07:26:06.788Z,219.38
2018-07-08T07:27:06.841Z,225.00
2018-07-08T07:28:06.717Z,225.00
2018-07-08T07:29:06.694Z,225.00
2018-07-08T07:30:06.656Z,225.00
2018-07-08T07:31:06.628Z,225.00
2018-07-08T07:32:06.593Z,225.00
2018-07-08T07:33:06.564Z,219.38
2018-07-08T07:34:06.541Z,225.00
2018-07-08T07:35:06.496Z,225.00
2018-07-08T07:36:06.458Z,225.00
2018-07-08T07:37:06.463Z,225.00
2018-07-08T07:38:06.440Z,225.00
2018-07-08T07:39:06.364Z,225.00
2018-07-08T07:40:06.334Z,225.00
2018-07-08T07:41:06.310Z,225.00
2018-07-08T07:42:06.268Z,225.00
2018-07-08T07:43:06.231Z,225.00
2018-07-08T07:44:06.212Z,225.00
2018-07-08T07:45:06.175Z,225.00
2018-07-08T07:46:06.144Z,225.00
2018-07-08T07:47:06.112Z,230.63
2018-07-08T07:48:06.074Z,225.00
2018-07-08T07:49:06.045Z,230.63
2018-07-08T07:50:06.011Z,230.63
2018-07-08T07:51:05.975Z,230.63
2018-07-08T07:52:05.960Z,230.63
2018-07-08T07:53:05.919Z,230.63
2018-07-08T07:54:05.886Z,225.00
2018-07-08T07:55:05.855Z,225.00
2018-07-08T07:56:05.821Z,225.00
2018-07-08T07:57:05.790Z,225.00
2018-07-08T07:58:05.759Z,225.00
2018-07-08T07:59:05.888Z,225.00
2018-07-08T08:00:05.689Z,225.00
2018-07-08T08:01:05.661Z,230.63
2018-07-08T08:02:05.628Z,225.00
2018-07-08T08:03:05.598Z,225.00
2018-07-08T08:04:05.567Z,225.00
2018-07-08T08:05:05.537Z,230.63
2018-07-08T08:06:05.502Z,225.00
2018-07-08T08:07:05.471Z,225.00
2018-07-08T08:08:05.437Z,225.00
2018-07-08T08:09:05.410Z,225.00
2018-07-08T08:10:05.373Z,225.00
2018-07-08T08:11:05.340Z,225.00
2018-07-08T08:12:05.315Z,225.00
2018-07-08T08:13:05.288Z,225.00
2018-07-08T08:14:05.246Z,225.00
2018-07-08T08:15:05.213Z,225.00
2018-07-08T08:16:05.199Z,225.00
2018-07-08T08:17:05.153Z,225.00
2018-07-08T08:18:05.123Z,225.00
2018-07-08T08:19:05.096Z,225.00
2018-07-08T08:20:05.050Z,219.38
2018-07-08T08:21:05.044Z,219.38
2018-07-08T08:22:04.997Z,225.00
2018-07-08T08:23:04.959Z,225.00
2018-07-08T08:24:04.936Z,225.00
2018-07-08T08:25:04.900Z,225.00
2018-07-08T08:26:04.867Z,225.00
2018-07-08T08:27:04.837Z,225.00
2018-07-08T08:28:04.801Z,225.00
2018-07-08T08:29:04.772Z,225.00
2018-07-08T08:30:04.742Z,225.00
2018-07-08T08:31:04.709Z,225.00
2018-07-08T08:32:04.673Z,225.00
2018-07-08T08:33:04.645Z,225.00
2018-07-08T08:34:04.612Z,225.00
2018-07-08T08:35:04.578Z,230.63
2018-07-08T08:36:04.554Z,225.00
2018-07-08T08:37:04.522Z,225.00
2018-07-08T08:38:04.493Z,225.00
2018-07-08T08:39:04.456Z,225.00
2018-07-08T08:40:04.417Z,225.00
2018-07-08T08:41:04.390Z,230.63
2018-07-08T08:42:04.357Z,225.00
2018-07-08T08:43:04.324Z,230.63
2018-07-08T08:44:04.297Z,225.00
2018-07-08T08:45:04.264Z,225.00
2018-07-08T08:46:04.250Z,225.00
2018-07-08T08:47:04.197Z,225.00
2018-07-08T08:48:04.173Z,225.00
2018-07-08T08:49:04.139Z,225.00
2018-07-08T08:50:04.111Z,225.00
2018-07-08T08:51:04.076Z,225.00
2018-07-08T08:52:04.039Z,225.00
2018-07-08T08:53:04.016Z,225.00
2018-07-08T08:54:03.984Z,225.00
2018-07-08T08:55:03.946Z,225.00
2018-07-08T08:56:03.918Z,225.00
2018-07-08T08:57:03.890Z,225.00
2018-07-08T08:58:03.854Z,225.00
2018-07-08T08:59:03.822Z,225.00
2018-07-08T09:00:03.793Z,225.00
2018-07-08T09:01:03.755Z,225.00
2018-07-08T09:02:03.728Z,230.63
2018-07-08T09:03:03.695Z,225.00
2018-07-08T09:04:03.663Z,225.00
2018-07-08T09:05:03.628Z,230.63
2018-07-08T09:06:03.600Z,225.00
2018-07-08T09:07:03.566Z,225.00
2018-07-08T09:08:03.539Z,230.63
2018-07-08T09:09:03.507Z,230.63
2018-07-08T09:10:03.477Z,230.63
2018-07-08T09:11:03.443Z,230.63
2018-07-08T09:12:03.408Z,230.63
2018-07-08T09:13:03.372Z,225.00
2018-07-08T09:14:03.340Z,230.63
2018-07-08T09:15:03.313Z,225.00
2018-07-08T09:16:03.284Z,230.63
2018-07-08T09:17:03.257Z,225.00
2018-07-08T09:18:03.216Z,230.63
2018-07-08T09:19:03.191Z,230.63
2018-07-08T09:20:03.160Z,230.63
2018-07-08T09:21:03.128Z,230.63
2018-07-08T09:22:03.096Z,230.63
2018-07-08T09:23:03.064Z,225.00
2018-07-08T09:24:03.058Z,230.63
2018-07-08T09:25:02.998Z,230.63
2018-07-08T09:26:06.436Z,225.00
2018-07-08T09:27:02.942Z,230.63
2018-07-08T09:28:02.912Z,225.00
2018-07-08T09:29:02.995Z,230.63
2018-07-08T09:30:03.149Z,230.63
2018-07-08T09:31:03.343Z,230.63
2018-07-08T09:32:03.621Z,225.00
2018-07-08T09:33:02.928Z,230.63
2018-07-08T09:34:02.767Z,230.63
2018-07-08T09:35:02.734Z,230.63
2018-07-08T09:36:02.659Z,230.63
2018-07-08T09:37:03.747Z,230.63
2018-07-08T09:38:02.588Z,230.63
2018-07-08T09:39:02.622Z,225.00
2018-07-08T09:40:02.547Z,230.63
2018-07-08T09:41:02.504Z,230.63
2018-07-08T09:42:02.481Z,230.63
2018-07-08T09:43:02.435Z,225.00
2018-07-08T09:44:02.414Z,225.00
2018-07-08T09:45:02.395Z,230.63
2018-07-08T09:46:02.429Z,225.00
2018-07-08T09:47:02.313Z,225.00
2018-07-08T09:48:02.307Z,225.00
2018-07-08T09:49:02.262Z,225.00
2018-07-08T09:50:02.217Z,225.00
2018-07-08T09:51:02.178Z,230.63
2018-07-08T09:52:02.147Z,225.00
2018-07-08T09:53:02.121Z,225.00
2018-07-08T09:54:02.101Z,225.00
2018-07-08T09:55:02.055Z,230.63
2018-07-08T09:56:02.018Z,225.00
2018-07-08T09:57:01.985Z,225.00
2018-07-08T09:58:01.991Z,230.63
2018-07-08T09:59:02.153Z,225.00
2018-07-08T10:00:01.910Z,225.00
2018-07-08T10:01:01.883Z,225.00
2018-07-08T10:02:01.864Z,225.00
2018-07-08T10:03:01.821Z,225.00
2018-07-08T10:04:01.785Z,225.00
2018-07-08T10:05:01.820Z,225.00
2018-07-08T10:06:01.723Z,225.00
2018-07-08T10:07:01.687Z,225.00
2018-07-08T10:08:01.662Z,225.00
2018-07-08T10:09:01.625Z,225.00
2018-07-08T10:21:53.132Z,225.00
2018-07-08T10:23:53.114Z,225.00
2018-07-08T10:24:53.002Z,225.00
2018-07-08T10:25:52.927Z,225.00
2018-07-08T10:26:52.898Z,225.00
2018-07-08T10:27:52.884Z,225.00
2018-07-08T10:28:52.817Z,219.38
2018-07-08T10:29:52.782Z,225.00
2018-07-08T10:30:52.751Z,225.00
2018-07-08T10:31:52.720Z,219.38
2018-07-08T10:32:52.676Z,219.38
2018-07-08T10:33:52.647Z,219.38
2018-07-08T10:34:52.629Z,219.38
2018-07-08T10:35:52.639Z,230.63
2018-07-08T10:36:52.884Z,225.00
2018-07-08T10:37:52.545Z,219.38
2018-07-08T10:38:52.661Z,219.38
2018-07-08T10:39:52.453Z,219.38
2018-07-08T10:40:52.427Z,219.38
2018-07-08T10:41:52.400Z,225.00
2018-07-08T10:42:52.362Z,219.38
2018-07-08T10:43:52.334Z,219.38
2018-07-08T10:44:52.294Z,219.38
2018-07-08T10:45:52.264Z,219.38
2018-07-08T10:46:52.232Z,219.38
2018-07-08T10:47:52.195Z,219.38
2018-07-08T10:48:52.174Z,219.38
2018-07-08T10:49:52.139Z,219.38
2018-07-08T10:50:52.108Z,219.38
2018-07-08T10:51:52.078Z,219.38
2018-07-08T10:52:52.043Z,219.38
2018-07-08T10:53:52.017Z,219.38
2018-07-08T10:54:51.983Z,219.38
2018-07-08T10:55:51.955Z,219.38
2018-07-08T10:56:51.915Z,219.38
2018-07-08T10:57:51.888Z,219.38
2018-07-08T10:58:51.859Z,219.38
2018-07-08T10:59:51.827Z,219.38
2018-07-08T11:00:51.801Z,219.38
2018-07-08T11:01:51.847Z,219.38
2018-07-08T11:02:51.737Z,219.38
2018-07-08T11:03:51.704Z,219.38
2018-07-08T11:04:51.665Z,219.38
2018-07-08T11:05:51.638Z,219.38
2018-07-08T11:06:51.609Z,219.38
2018-07-08T11:07:51.576Z,219.38
2018-07-08T11:08:51.549Z,219.38
2018-07-08T11:09:51.517Z,219.38
2018-07-08T11:10:51.483Z,219.38
2018-07-08T11:11:51.449Z,219.38
2018-07-08T11:12:51.422Z,219.38
2018-07-08T11:13:51.392Z,219.38
2018-07-08T11:14:51.361Z,219.38
2018-07-08T11:15:51.334Z,219.38
2018-07-08T11:16:51.296Z,219.38
2018-07-08T11:17:51.267Z,219.38
2018-07-08T11:18:51.241Z,219.38
2018-07-08T11:19:51.203Z,219.38
2018-07-08T11:20:51.233Z,219.38
2018-07-08T11:21:51.147Z,219.38
2018-07-08T11:22:51.116Z,219.38
2018-07-08T11:23:51.090Z,225.00
2018-07-08T11:24:51.050Z,225.00
2018-07-08T11:25:51.023Z,225.00
2018-07-08T11:26:50.994Z,225.00
2018-07-08T11:27:50.964Z,225.00
2018-07-08T11:28:50.921Z,219.38
2018-07-08T11:29:50.901Z,219.38
2018-07-08T11:30:50.867Z,225.00
2018-07-08T11:31:50.834Z,225.00
2018-07-08T11:32:50.807Z,225.00
2018-07-08T11:33:50.777Z,219.38
2018-07-08T11:34:50.747Z,225.00
2018-07-08T11:35:50.718Z,225.00
2018-07-08T11:36:50.677Z,225.00
2018-07-08T11:37:50.651Z,225.00
2018-07-08T11:38:50.619Z,225.00
2018-07-08T11:39:50.590Z,225.00
2018-07-08T11:40:50.564Z,225.00
2018-07-08T11:41:50.532Z,225.00
2018-07-08T11:42:50.560Z,225.00
2018-07-08T11:43:50.469Z,219.38
2018-07-08T11:44:50.442Z,219.38
2018-07-08T11:45:50.410Z,225.00
2018-07-08T11:46:50.380Z,225.00
2018-07-08T11:47:50.356Z,225.00
2018-07-08T11:48:50.313Z,225.00
2018-07-08T11:49:50.300Z,225.00
2018-07-08T11:50:50.258Z,225.00
2018-07-08T11:51:50.220Z,225.00
2018-07-08T11:52:50.196Z,225.00
2018-07-08T11:53:50.208Z,219.38
2018-07-08T11:54:50.139Z,219.38
2018-07-08T11:55:50.107Z,225.00
2018-07-08T11:56:50.070Z,225.00
2018-07-08T11:57:50.044Z,225.00
2018-07-08T11:58:50.016Z,225.00
2018-07-08T11:59:49.986Z,208.13
2018-07-08T12:00:49.948Z,219.38
2018-07-08T12:01:49.960Z,225.00
2018-07-08T12:02:49.891Z,219.38
2018-07-08T12:03:49.858Z,225.00
2018-07-08T12:04:49.831Z,196.88
2018-07-08T12:05:49.801Z,225.00
2018-07-08T12:06:49.770Z,225.00
2018-07-08T12:07:49.743Z,225.00
2018-07-08T12:08:49.711Z,225.00
2018-07-08T12:09:49.675Z,225.00
2018-07-08T12:10:49.646Z,225.00
2018-07-08T12:11:49.619Z,225.00
2018-07-08T12:12:49.588Z,225.00
2018-07-08T12:13:49.556Z,225.00
2018-07-08T12:14:49.527Z,225.00
2018-07-08T12:15:49.491Z,225.00
2018-07-08T12:16:49.471Z,225.00
2018-07-08T12:17:49.436Z,219.38
2018-07-08T12:18:49.407Z,225.00
2018-07-08T12:19:49.377Z,225.00
2018-07-08T12:20:49.339Z,225.00
2018-07-08T12:21:49.315Z,225.00
2018-07-08T12:22:49.279Z,225.00
2018-07-08T12:23:49.252Z,225.00
2018-07-08T12:24:49.225Z,225.00
2018-07-08T12:25:49.197Z,225.00
2018-07-08T12:26:49.173Z,225.00
2018-07-08T12:27:49.135Z,219.38
2018-07-08T12:28:49.102Z,225.00
2018-07-08T12:29:49.073Z,225.00
2018-07-08T12:30:49.047Z,219.38
2018-07-08T12:31:49.016Z,219.38
2018-07-08T12:32:48.983Z,219.38
2018-07-08T12:33:48.950Z,219.38
2018-07-08T12:34:48.922Z,219.38
2018-07-08T12:35:48.895Z,225.00
2018-07-08T12:36:48.928Z,219.38
2018-07-08T12:37:48.837Z,225.00
2018-07-08T12:38:48.815Z,225.00
2018-07-08T12:39:48.775Z,225.00
2018-07-08T12:40:48.741Z,219.38
2018-07-08T12:41:48.709Z,219.38
2018-07-08T12:42:48.684Z,219.38
2018-07-08T12:43:48.654Z,225.00
2018-07-08T12:44:48.745Z,219.38
2018-07-08T12:45:48.596Z,225.00
2018-07-08T12:46:48.561Z,219.38
2018-07-08T12:47:48.535Z,219.38
2018-07-08T12:48:48.504Z,219.38
2018-07-08T12:49:48.476Z,202.50
2018-07-08T12:50:48.454Z,225.00
2018-07-08T12:51:48.417Z,219.38
2018-07-08T12:52:48.384Z,219.38
2018-07-08T12:53:48.349Z,225.00
2018-07-08T12:54:48.325Z,219.38
2018-07-08T12:55:48.295Z,219.38
2018-07-08T12:56:48.263Z,219.38
2018-07-08T12:57:48.238Z,219.38
2018-07-08T12:58:48.309Z,225.00
2018-07-08T12:59:48.179Z,225.00
2018-07-08T13:00:48.144Z,225.00
2018-07-08T13:01:48.114Z,225.00
2018-07-08T13:02:48.089Z,225.00
2018-07-08T13:03:48.057Z,225.00
2018-07-08T13:04:48.028Z,225.00
2018-07-08T13:05:47.993Z,225.00
2018-07-08T13:06:47.970Z,225.00
2018-07-08T13:07:47.937Z,225.00
2018-07-08T13:08:47.909Z,225.00
2018-07-08T13:09:47.882Z,225.00
2018-07-08T13:10:47.852Z,225.00
2018-07-08T13:11:47.824Z,225.00
2018-07-08T13:12:47.788Z,225.00